createdAt,value
2022-10-01T00:00:00.924Z,92.8
2022-10-01T00:01:01.073Z,92.8
2022-10-01T00:02:01.298Z,92.8
2022-10-01T00:03:00.399Z,92.7
2022-10-01T00:04:00.533Z,92.6
2022-10-01T00:05:00.656Z,92.6
2022-10-01T00:06:00.809Z,92.5
2022-10-01T00:07:00.949Z,92.5
2022-10-01T00:08:01.094Z,92.5
2022-10-01T00:09:01.268Z,92.5
2022-10-01T00:10:00.388Z,92.5
2022-10-01T00:11:00.526Z,92.5
2022-10-01T00:12:00.688Z,92.5
2022-10-01T00:13:00.820Z,92.5
2022-10-01T00:14:00.999Z,92.4
2022-10-01T00:15:05.756Z,92.3
2022-10-01T00:16:00.270Z,92.3
2022-10-01T00:17:00.577Z,92.1
2022-10-01T00:18:00.563Z,92
2022-10-01T00:19:00.726Z,91.8
2022-10-01T00:20:00.850Z,91.8
2022-10-01T00:21:01.016Z,91.7
2022-10-01T00:22:01.185Z,91.8
2022-10-01T00:23:00.316Z,91.9
2022-10-01T00:24:00.464Z,91.9
2022-10-01T00:25:00.621Z,91.9
2022-10-01T00:26:00.775Z,91.8
2022-10-01T00:27:00.936Z,91.7
2022-10-01T00:28:01.103Z,91.6
2022-10-01T00:29:01.210Z,91.6
2022-10-01T00:30:00.368Z,91.7
2022-10-01T00:31:00.534Z,91.7
2022-10-01T00:32:00.739Z,91.9
2022-10-01T00:33:00.838Z,91.9
2022-10-01T00:34:00.967Z,92
2022-10-01T00:35:01.111Z,92
2022-10-01T00:36:00.260Z,91.9
2022-10-01T00:37:00.400Z,91.8
2022-10-01T00:38:00.607Z,91.8
2022-10-01T00:39:00.969Z,91.9
2022-10-01T00:40:00.845Z,92
2022-10-01T00:41:00.982Z,92
2022-10-01T00:42:01.121Z,91.9
2022-10-01T00:43:00.301Z,91.8
2022-10-01T00:44:00.427Z,91.7
2022-10-01T00:45:00.569Z,91.7
2022-10-01T00:46:00.745Z,91.6
2022-10-01T00:47:00.865Z,91.6
2022-10-01T00:48:01.034Z,91.6
2022-10-01T00:49:01.167Z,91.7
2022-10-01T00:50:00.317Z,91.8
2022-10-01T00:51:00.460Z,91.8
2022-10-01T00:52:00.615Z,91.9
2022-10-01T00:53:00.805Z,91.9
2022-10-01T00:54:00.902Z,92
2022-10-01T00:55:01.048Z,92
2022-10-01T00:56:01.184Z,92.1
2022-10-01T00:57:00.339Z,92.2
2022-10-01T00:58:00.502Z,92.3
2022-10-01T00:59:00.620Z,92.4
2022-10-01T01:00:00.770Z,92.3
2022-10-01T01:01:00.989Z,92.4
2022-10-01T01:02:01.105Z,92.4
2022-10-01T01:03:01.232Z,92.5
2022-10-01T01:04:00.348Z,92.5
2022-10-01T01:05:00.506Z,92.5
2022-10-01T01:06:00.649Z,92.6
2022-10-01T01:07:00.803Z,92.6
2022-10-01T01:08:00.968Z,92.7
2022-10-01T01:09:01.096Z,92.7
2022-10-01T01:10:01.247Z,92.8
2022-10-01T01:11:00.397Z,92.8
2022-10-01T01:12:00.534Z,92.8
2022-10-01T01:13:00.715Z,92.8
2022-10-01T01:14:00.852Z,92.9
2022-10-01T01:15:00.997Z,92.9
2022-10-01T01:16:01.222Z,92.9
2022-10-01T01:17:00.295Z,92.9
2022-10-01T01:18:00.471Z,92.9
2022-10-01T01:19:00.589Z,92.9
2022-10-01T01:20:00.736Z,92.8
2022-10-01T01:21:00.868Z,92.7
2022-10-01T01:22:01.015Z,92.7
2022-10-01T01:23:01.193Z,92.7
2022-10-01T01:24:00.300Z,92.8
2022-10-01T01:25:00.455Z,92.8
2022-10-01T01:26:00.603Z,92.8
2022-10-01T01:27:00.733Z,92.8
2022-10-01T01:28:00.920Z,92.9
2022-10-01T01:29:01.035Z,93
2022-10-01T01:30:01.187Z,93
2022-10-01T01:31:00.367Z,93
2022-10-01T01:32:00.490Z,93
2022-10-01T01:33:00.673Z,93.1
2022-10-01T01:34:00.796Z,93.1
2022-10-01T01:35:00.951Z,93.2
2022-10-01T01:36:01.100Z,93.1
2022-10-01T01:37:01.240Z,93.2
2022-10-01T01:38:00.395Z,93.2
2022-10-01T01:39:00.531Z,93.2
2022-10-01T01:40:00.683Z,93.2
2022-10-01T01:41:00.832Z,93.2
2022-10-01T01:42:00.968Z,93.2
2022-10-01T01:43:01.143Z,93.3
2022-10-01T01:44:00.263Z,93.3
2022-10-01T01:45:00.405Z,93.3
2022-10-01T01:46:00.616Z,93.2
2022-10-01T01:47:00.708Z,93.2
2022-10-01T01:48:00.890Z,93.2
2022-10-01T01:49:01.002Z,93.2
2022-10-01T01:50:01.152Z,93.2
2022-10-01T01:51:00.301Z,93.1
2022-10-01T01:52:00.445Z,93.1
2022-10-01T01:53:00.610Z,93.1
2022-10-01T01:54:00.744Z,93
2022-10-01T01:55:00.887Z,92.9
2022-10-01T01:56:01.030Z,92.8
2022-10-01T01:57:01.190Z,92.8
2022-10-01T01:58:00.346Z,92.7
2022-10-01T01:59:00.471Z,92.6
2022-10-01T02:00:00.616Z,92.6
2022-10-01T02:01:00.760Z,92.5
2022-10-01T02:02:01.074Z,92.5
2022-10-01T02:03:01.243Z,92.5
2022-10-01T02:04:01.206Z,92.5
2022-10-01T02:05:00.365Z,92.5
2022-10-01T02:06:00.506Z,92.4
2022-10-01T02:07:00.651Z,92.4
2022-10-01T02:08:00.836Z,92.4
2022-10-01T02:09:00.959Z,92.5
2022-10-01T02:10:01.104Z,92.5
2022-10-01T02:11:01.254Z,92.5
2022-10-01T02:12:00.402Z,92.5
2022-10-01T02:13:00.559Z,92.4
2022-10-01T02:14:00.731Z,92.3
2022-10-01T02:15:00.840Z,92.3
2022-10-01T02:16:01.040Z,92.2
2022-10-01T02:17:01.133Z,92.1
2022-10-01T02:18:00.265Z,92.1
2022-10-01T02:19:00.441Z,92.1
2022-10-01T02:20:00.585Z,92.1
2022-10-01T02:21:00.733Z,92.1
2022-10-01T02:22:00.882Z,92.1
2022-10-01T02:23:01.031Z,92.1
2022-10-01T02:24:01.200Z,92
2022-10-01T02:25:00.324Z,92
2022-10-01T02:26:00.470Z,91.9
2022-10-01T02:27:00.609Z,91.8
2022-10-01T02:28:00.780Z,91.7
2022-10-01T02:29:00.941Z,91.5
2022-10-01T02:30:01.051Z,91.5
2022-10-01T02:31:01.313Z,91.4
2022-10-01T02:32:00.353Z,91.3
2022-10-01T02:33:00.495Z,91.2
2022-10-01T02:34:00.666Z,91.3
2022-10-01T02:35:00.795Z,91.4
2022-10-01T02:36:00.952Z,91.3
2022-10-01T02:37:01.097Z,91.1
2022-10-01T02:38:01.249Z,91
2022-10-01T02:39:00.402Z,90.9
2022-10-01T02:40:00.564Z,90.9
2022-10-01T02:41:00.679Z,90.8
2022-10-01T02:42:00.836Z,90.7
2022-10-01T02:43:00.978Z,90.6
2022-10-01T02:44:01.130Z,90.5
2022-10-01T02:45:00.279Z,90.4
2022-10-01T02:46:00.489Z,90.5
2022-10-01T02:47:00.567Z,90.6
2022-10-01T02:48:00.724Z,90.5
2022-10-01T02:49:00.862Z,90.5
2022-10-01T02:50:01.019Z,90.5
2022-10-01T02:51:01.174Z,90.3
2022-10-01T02:52:00.306Z,90.2
2022-10-01T02:53:00.453Z,90.2
2022-10-01T02:54:00.597Z,90.4
2022-10-01T02:55:00.751Z,90.6
2022-10-01T02:56:00.913Z,90.6
2022-10-01T02:57:01.064Z,90.7
2022-10-01T02:58:01.190Z,90.6
2022-10-01T02:59:00.347Z,90.7
2022-10-01T03:00:00.487Z,90.7
2022-10-01T03:01:00.629Z,90.5
2022-10-01T03:02:00.934Z,90.5
2022-10-01T03:03:01.022Z,90.4
2022-10-01T03:04:01.081Z,90.3
2022-10-01T03:05:01.225Z,90.3
2022-10-01T03:06:00.363Z,90.3
2022-10-01T03:07:00.531Z,90.2
2022-10-01T03:08:00.667Z,90.1
2022-10-01T03:09:00.816Z,90.1
2022-10-01T03:10:00.962Z,90.1
2022-10-01T03:11:01.119Z,90
2022-10-01T03:12:00.275Z,90
2022-10-01T03:13:00.417Z,89.9
2022-10-01T03:14:00.550Z,89.9
2022-10-01T03:15:00.701Z,89.9
2022-10-01T03:16:00.908Z,89.9
2022-10-01T03:17:01.018Z,89.9
2022-10-01T03:18:01.141Z,89.9
2022-10-01T03:19:00.285Z,89.9
2022-10-01T03:20:00.452Z,89.9
2022-10-01T03:21:00.584Z,89.9
2022-10-01T03:22:00.779Z,89.9
2022-10-01T03:23:00.875Z,89.8
2022-10-01T03:24:01.029Z,89.8
2022-10-01T03:25:01.169Z,89.9
2022-10-01T03:26:00.321Z,89.9
2022-10-01T03:27:00.478Z,89.9
2022-10-01T03:28:00.670Z,89.9
2022-10-01T03:29:00.749Z,90
2022-10-01T03:30:00.904Z,89.9
2022-10-01T03:31:01.090Z,89.9
2022-10-01T03:32:01.207Z,89.9
2022-10-01T03:33:00.359Z,89.9
2022-10-01T03:34:00.528Z,89.9
2022-10-01T03:35:00.636Z,89.9
2022-10-01T03:36:00.800Z,89.9
2022-10-01T03:37:00.940Z,89.9
2022-10-01T03:38:01.084Z,89.8
2022-10-01T03:39:01.266Z,89.9
2022-10-01T03:40:00.373Z,89.8
2022-10-01T03:41:00.505Z,89.6
2022-10-01T03:42:00.660Z,89.5
2022-10-01T03:43:00.798Z,89.4
2022-10-01T03:44:00.977Z,89.4
2022-10-01T03:45:01.097Z,89.6
2022-10-01T03:46:01.326Z,89.8
2022-10-01T03:47:00.388Z,89.9
2022-10-01T03:48:00.531Z,89.9
2022-10-01T03:49:00.694Z,89.9
2022-10-01T03:50:00.833Z,89.9
2022-10-01T03:51:01.008Z,89.9
2022-10-01T03:52:01.124Z,89.8
2022-10-01T03:53:00.257Z,89.7
2022-10-01T03:54:00.415Z,89.7
2022-10-01T03:55:00.566Z,89.8
2022-10-01T03:56:00.731Z,89.7
2022-10-01T03:57:00.865Z,89.6
2022-10-01T03:58:01.036Z,89.5
2022-10-01T03:59:01.152Z,89.6
2022-10-01T04:00:00.303Z,89.6
2022-10-01T04:01:00.466Z,89.5
2022-10-01T04:02:00.691Z,89.4
2022-10-01T04:03:00.853Z,89.4
2022-10-01T04:04:00.902Z,89.2
2022-10-01T04:05:01.051Z,89
2022-10-01T04:06:01.233Z,88.7
2022-10-01T04:07:00.341Z,88.7
2022-10-01T04:08:00.492Z,88.7
2022-10-01T04:09:00.652Z,88.6
2022-10-01T04:10:00.787Z,88.6
2022-10-01T04:11:00.989Z,88.7
2022-10-01T04:12:01.079Z,88.6
2022-10-01T04:13:01.226Z,88.6
2022-10-01T04:14:00.365Z,88.5
2022-10-01T04:15:00.514Z,88.8
2022-10-01T04:16:00.760Z,89
2022-10-01T04:17:00.818Z,89
2022-10-01T04:18:00.958Z,89.1
2022-10-01T04:19:01.123Z,89.2
2022-10-01T04:20:00.286Z,89.2
2022-10-01T04:21:00.442Z,89.1
2022-10-01T04:22:00.559Z,89.1
2022-10-01T04:23:00.708Z,88.9
2022-10-01T04:24:00.863Z,88.9
2022-10-01T04:25:01.012Z,88.8
2022-10-01T04:26:01.187Z,88.8
2022-10-01T04:27:00.304Z,88.7
2022-10-01T04:28:00.472Z,88.6
2022-10-01T04:29:00.596Z,88.7
2022-10-01T04:30:00.732Z,88.6
2022-10-01T04:31:00.908Z,88.6
2022-10-01T04:32:01.042Z,88.5
2022-10-01T04:33:01.154Z,88.5
2022-10-01T04:34:00.288Z,88.5
2022-10-01T04:35:00.440Z,88.5
2022-10-01T04:36:00.605Z,88.6
2022-10-01T04:37:00.757Z,88.6
2022-10-01T04:38:00.892Z,88.5
2022-10-01T04:39:02.711Z,88.4
2022-10-01T04:40:01.184Z,88.5
2022-10-01T04:41:00.339Z,88.4
2022-10-01T04:42:00.496Z,88.3
2022-10-01T04:43:00.640Z,88.4
2022-10-01T04:44:00.836Z,88.5
2022-10-01T04:45:00.922Z,88.5
2022-10-01T04:46:01.069Z,88.5
2022-10-01T04:47:01.309Z,88.4
2022-10-01T04:48:00.386Z,88.4
2022-10-01T04:49:00.514Z,88.4
2022-10-01T04:50:00.670Z,88.3
2022-10-01T04:51:00.829Z,88.4
2022-10-01T04:52:00.965Z,88.3
2022-10-01T04:53:01.135Z,87.9
2022-10-01T04:54:00.267Z,87.6
2022-10-01T04:55:00.458Z,87.6
2022-10-01T04:56:00.565Z,87.7
2022-10-01T04:57:00.710Z,87.5
2022-10-01T04:58:00.879Z,87.5
2022-10-01T04:59:01.006Z,87.5
2022-10-01T05:00:01.149Z,87.6
2022-10-01T05:01:02.329Z,87.5
2022-10-01T05:02:00.508Z,87.5
2022-10-01T05:03:00.624Z,87.5
2022-10-01T05:04:00.760Z,87.5
2022-10-01T05:05:00.909Z,87.5
2022-10-01T05:06:01.045Z,87.6
2022-10-01T05:07:01.215Z,87.6
2022-10-01T05:08:00.387Z,87.6
2022-10-01T05:09:00.512Z,87.6
2022-10-01T05:10:00.639Z,87.7
2022-10-01T05:11:00.790Z,87.8
2022-10-01T05:12:00.936Z,87.6
2022-10-01T05:13:01.112Z,87.6
2022-10-01T05:14:01.237Z,87.5
2022-10-01T05:15:00.377Z,87.6
2022-10-01T05:16:00.690Z,87.6
2022-10-01T05:17:00.673Z,87.7
2022-10-01T05:18:00.850Z,87.8
2022-10-01T05:19:00.968Z,87.8
2022-10-01T05:20:01.119Z,87.9
2022-10-01T05:21:00.261Z,87.9
2022-10-01T05:22:00.415Z,88
2022-10-01T05:23:00.569Z,88
2022-10-01T05:24:00.739Z,88.2
2022-10-01T05:25:00.859Z,88.2
2022-10-01T05:26:01.006Z,88.4
2022-10-01T05:27:01.151Z,88.4
2022-10-01T05:28:00.379Z,88.4
2022-10-01T05:29:00.439Z,88.5
2022-10-01T05:30:00.636Z,88.5
2022-10-01T05:31:00.916Z,88.5
2022-10-01T05:32:00.947Z,88.5
2022-10-01T05:33:01.057Z,88.5
2022-10-01T05:34:01.190Z,88.5
2022-10-01T05:35:00.342Z,88.5
2022-10-01T05:36:00.481Z,88.4
2022-10-01T05:37:00.625Z,88.5
2022-10-01T05:38:00.783Z,88.7
2022-10-01T05:39:00.918Z,89
2022-10-01T05:40:01.078Z,89.1
2022-10-01T05:41:01.219Z,89.1
2022-10-01T05:42:05.397Z,89.1
2022-10-01T05:43:00.513Z,89.3
2022-10-01T05:44:00.656Z,89.2
2022-10-01T05:45:00.810Z,89.1
2022-10-01T05:46:00.973Z,89.1
2022-10-01T05:47:01.089Z,89.1
2022-10-01T05:48:01.239Z,89
2022-10-01T05:49:00.392Z,89.1
2022-10-01T05:50:00.565Z,89.2
2022-10-01T05:51:00.759Z,89.4
2022-10-01T05:52:00.870Z,89.5
2022-10-01T05:53:00.977Z,89.5
2022-10-01T05:54:01.138Z,89.5
2022-10-01T05:55:00.284Z,89.5
2022-10-01T05:56:00.432Z,89.6
2022-10-01T05:57:00.601Z,89.6
2022-10-01T05:58:00.768Z,89.5
2022-10-01T05:59:00.885Z,89.4
2022-10-01T06:00:01.037Z,89.4
2022-10-01T06:01:01.179Z,89.4
2022-10-01T06:02:00.472Z,89.2
2022-10-01T06:03:00.619Z,89.1
2022-10-01T06:04:00.620Z,89.3
2022-10-01T06:05:00.786Z,89.2
2022-10-01T06:06:00.943Z,89.3
2022-10-01T06:07:01.086Z,89.4
2022-10-01T06:08:01.245Z,89.5
2022-10-01T06:09:00.359Z,89.5
2022-10-01T06:10:00.492Z,89.5
2022-10-01T06:11:00.634Z,89.5
2022-10-01T06:12:00.781Z,89.6
2022-10-01T06:13:00.944Z,89.5
2022-10-01T06:14:01.082Z,89.4
2022-10-01T06:15:01.224Z,89.3
2022-10-01T06:16:00.520Z,89
2022-10-01T06:17:00.517Z,88.9
2022-10-01T06:18:00.658Z,88.8
2022-10-01T06:19:00.805Z,88.7
2022-10-01T06:20:00.959Z,88.6
2022-10-01T06:21:01.110Z,88.6
2022-10-01T06:22:01.254Z,88.5
2022-10-01T06:23:00.420Z,88.4
2022-10-01T06:24:00.555Z,88.2
2022-10-01T06:25:00.708Z,88
2022-10-01T06:26:00.919Z,87.8
2022-10-01T06:27:01.004Z,87.5
2022-10-01T06:28:01.253Z,87.3
2022-10-01T06:29:00.290Z,87.4
2022-10-01T06:30:00.447Z,87.5
2022-10-01T06:31:00.598Z,87.4
2022-10-01T06:32:00.815Z,87.2
2022-10-01T06:33:00.904Z,87.1
2022-10-01T06:34:01.029Z,87.1
2022-10-01T06:35:01.175Z,87.2
2022-10-01T06:36:00.326Z,87.1
2022-10-01T06:37:00.475Z,87.1
2022-10-01T06:38:00.638Z,87.2
2022-10-01T06:39:00.771Z,87.2
2022-10-01T06:40:01.027Z,87
2022-10-01T06:41:01.079Z,87
2022-10-01T06:42:01.215Z,86.8
2022-10-01T06:43:00.391Z,86.9
2022-10-01T06:44:00.502Z,86.9
2022-10-01T06:45:00.638Z,86.7
2022-10-01T06:46:00.858Z,86.6
2022-10-01T06:47:00.944Z,86.7
2022-10-01T06:48:01.097Z,86.4
2022-10-01T06:49:01.236Z,86.5
2022-10-01T06:50:00.410Z,86.4
2022-10-01T06:51:00.531Z,86.5
2022-10-01T06:52:00.672Z,86.6
2022-10-01T06:53:00.816Z,86.6
2022-10-01T06:54:00.959Z,86.6
2022-10-01T06:55:01.192Z,86.8
2022-10-01T06:56:00.255Z,86.9
2022-10-01T06:57:00.411Z,86.7
2022-10-01T06:58:00.549Z,86.5
2022-10-01T06:59:00.702Z,86.5
2022-10-01T07:00:00.874Z,86.4
2022-10-01T07:01:01.012Z,86.7
2022-10-01T07:02:01.217Z,86.7
2022-10-01T07:03:00.284Z,86.6
2022-10-01T07:04:00.435Z,86.5
2022-10-01T07:05:00.623Z,86.3
2022-10-01T07:06:00.744Z,86.6
2022-10-01T07:07:00.887Z,86.3
2022-10-01T07:08:01.034Z,85.7
2022-10-01T07:09:01.173Z,86.1
2022-10-01T07:10:00.349Z,86.1
2022-10-01T07:11:00.496Z,86.2
2022-10-01T07:12:00.625Z,86.2
2022-10-01T07:13:00.775Z,86.3
2022-10-01T07:14:00.917Z,85.8
2022-10-01T07:15:01.161Z,86
2022-10-01T07:16:01.329Z,86.1
2022-10-01T07:17:00.377Z,85.9
2022-10-01T07:18:00.513Z,86.1
2022-10-01T07:19:00.670Z,86.1
2022-10-01T07:20:00.826Z,86.2
2022-10-01T07:21:00.988Z,86.1
2022-10-01T07:22:01.129Z,86.2
2022-10-01T07:23:00.267Z,86.3
2022-10-01T07:24:00.423Z,86.5
2022-10-01T07:25:00.566Z,86.4
2022-10-01T07:26:00.749Z,86.3
2022-10-01T07:27:06.521Z,86.4
2022-10-01T07:28:01.050Z,86.2
2022-10-01T07:29:01.165Z,86
2022-10-01T07:30:00.318Z,86.1
2022-10-01T07:31:00.469Z,85.9
2022-10-01T07:32:00.626Z,86.1
2022-10-01T07:33:00.748Z,85.9
2022-10-01T07:34:00.911Z,85.9
2022-10-01T07:35:01.050Z,85.9
2022-10-01T07:36:01.223Z,85.8
2022-10-01T07:37:00.339Z,85.8
2022-10-01T07:38:00.485Z,85.2
2022-10-01T07:39:00.634Z,85.2
2022-10-01T07:40:05.274Z,85.5
2022-10-01T07:41:00.959Z,85.3
2022-10-01T07:42:01.088Z,85.3
2022-10-01T07:43:01.234Z,85.5
2022-10-01T07:44:00.371Z,85.4
2022-10-01T07:45:00.527Z,85.2
2022-10-01T07:46:00.727Z,85
2022-10-01T07:47:00.828Z,85.3
2022-10-01T07:48:00.986Z,85.1
2022-10-01T07:49:01.131Z,85.2
2022-10-01T07:50:00.270Z,85
2022-10-01T07:51:00.424Z,85
2022-10-01T07:52:00.584Z,84.9
2022-10-01T07:53:00.705Z,84.8
2022-10-01T07:54:00.825Z,84.4
2022-10-01T07:55:00.986Z,84
2022-10-01T07:56:01.124Z,84.3
2022-10-01T07:57:00.287Z,84.5
2022-10-01T07:58:00.426Z,84.4
2022-10-01T07:59:00.585Z,84.5
2022-10-01T08:00:00.727Z,84.8
2022-10-01T08:01:00.921Z,84.2
2022-10-01T08:02:01.158Z,84.5
2022-10-01T08:03:01.175Z,84.4
2022-10-01T08:04:00.333Z,84.3
2022-10-01T08:05:00.477Z,84.6
2022-10-01T08:06:00.623Z,84.5
2022-10-01T08:07:00.783Z,84.6
2022-10-01T08:08:00.922Z,84.4
2022-10-01T08:09:01.089Z,84.6
2022-10-01T08:10:01.214Z,84.3
2022-10-01T08:11:00.360Z,84.5
2022-10-01T08:12:00.494Z,84.4
2022-10-01T08:13:00.648Z,83.8
2022-10-01T08:14:00.815Z,84
2022-10-01T08:15:00.954Z,83.5
2022-10-01T08:16:01.092Z,83.7
2022-10-01T08:17:01.289Z,84
2022-10-01T08:18:00.387Z,84
2022-10-01T08:19:00.558Z,83.8
2022-10-01T08:20:00.680Z,84
2022-10-01T08:21:00.825Z,84.4
2022-10-01T08:22:00.981Z,84.4
2022-10-01T08:23:01.134Z,83.9
2022-10-01T08:24:00.304Z,83.8
2022-10-01T08:25:00.421Z,83.9
2022-10-01T08:26:00.581Z,83.7
2022-10-01T08:27:00.724Z,83.8
2022-10-01T08:28:00.920Z,84
2022-10-01T08:29:01.049Z,84.2
2022-10-01T08:30:01.180Z,83.3
2022-10-01T08:31:00.321Z,83
2022-10-01T08:32:00.532Z,83.4
2022-10-01T08:33:00.606Z,83.8
2022-10-01T08:34:00.779Z,83.6
2022-10-01T08:35:00.939Z,83.2
2022-10-01T08:36:01.059Z,83.4
2022-10-01T08:37:01.221Z,83.4
2022-10-01T08:38:00.359Z,83.2
2022-10-01T08:39:00.521Z,83.3
2022-10-01T08:40:00.692Z,83.5
2022-10-01T08:41:00.826Z,83.1
2022-10-01T08:42:00.967Z,83.4
2022-10-01T08:43:01.109Z,83.2
2022-10-01T08:44:01.259Z,83.3
2022-10-01T08:45:00.409Z,82.7
2022-10-01T08:46:00.600Z,82.2
2022-10-01T08:47:00.679Z,82.9
2022-10-01T08:48:00.824Z,83.1
2022-10-01T08:49:00.975Z,82.2
2022-10-01T08:50:01.158Z,81.6
2022-10-01T08:51:00.273Z,82.1
2022-10-01T08:52:00.409Z,82.6
2022-10-01T08:53:00.566Z,82.1
2022-10-01T08:54:00.705Z,82.1
2022-10-01T08:55:00.886Z,83.2
2022-10-01T08:56:01.000Z,82.6
2022-10-01T08:57:01.147Z,82.3
2022-10-01T08:58:00.308Z,82.4
2022-10-01T08:59:00.450Z,82.1
2022-10-01T09:00:00.601Z,81.5
2022-10-01T09:01:00.845Z,81.6
2022-10-01T09:02:00.874Z,81.8
2022-10-01T09:03:01.014Z,82.2
2022-10-01T09:04:01.187Z,82.4
2022-10-01T09:05:01.953Z,81.9
2022-10-01T09:06:00.484Z,81.9
2022-10-01T09:07:00.611Z,82.7
2022-10-01T09:08:00.770Z,82
2022-10-01T09:09:00.912Z,82.3
2022-10-01T09:10:01.067Z,81.8
2022-10-01T09:11:01.210Z,81.9
2022-10-01T09:12:00.345Z,82.6
2022-10-01T09:13:00.507Z,81.9
2022-10-01T09:14:00.643Z,81.9
2022-10-01T09:15:00.801Z,82.8
2022-10-01T09:16:01.033Z,81.9
2022-10-01T09:17:01.133Z,82.7
2022-10-01T09:18:01.253Z,82.8
2022-10-01T09:19:00.403Z,83.2
2022-10-01T09:20:00.536Z,83.4
2022-10-01T09:21:00.689Z,83.2
2022-10-01T09:22:00.863Z,83.2
2022-10-01T09:23:00.987Z,82.4
2022-10-01T09:24:01.138Z,81.8
2022-10-01T09:25:00.290Z,81.9
2022-10-01T09:26:00.444Z,83.1
2022-10-01T09:27:00.607Z,83.5
2022-10-01T09:28:00.830Z,83.6
2022-10-01T09:29:00.892Z,83.7
2022-10-01T09:30:01.036Z,83.5
2022-10-01T09:31:01.174Z,83.1
2022-10-01T09:32:00.387Z,83.1
2022-10-01T09:33:00.501Z,83.4
2022-10-01T09:34:00.620Z,83
2022-10-01T09:35:04.276Z,82.7
2022-10-01T09:36:00.950Z,83.4
2022-10-01T09:37:01.077Z,83.3
2022-10-01T09:38:01.254Z,83.6
2022-10-01T09:39:00.371Z,83.4
2022-10-01T09:40:00.527Z,83.4
2022-10-01T09:41:00.666Z,82.6
2022-10-01T09:42:00.821Z,82.8
2022-10-01T09:43:00.990Z,82
2022-10-01T09:44:01.110Z,82.9
2022-10-01T09:45:00.271Z,82.2
2022-10-01T09:46:00.484Z,82.9
2022-10-01T09:47:00.550Z,82.7
2022-10-01T09:48:00.719Z,82.4
2022-10-01T09:49:00.856Z,82.8
2022-10-01T09:50:01.003Z,82.6
2022-10-01T09:51:01.141Z,82.7
2022-10-01T09:52:00.276Z,82.8
2022-10-01T09:53:00.457Z,83
2022-10-01T09:54:00.582Z,83.5
2022-10-01T09:55:00.773Z,82.8
2022-10-01T09:56:00.914Z,82.5
2022-10-01T09:57:01.067Z,82.3
2022-10-01T09:58:01.224Z,82.6
2022-10-01T09:59:00.350Z,82.6
2022-10-01T10:00:00.509Z,82.9
2022-10-01T10:01:00.673Z,83
2022-10-01T10:02:00.889Z,82.7
2022-10-01T10:03:01.168Z,82.4
2022-10-01T10:04:01.108Z,82.3
2022-10-01T10:05:01.222Z,82.6
2022-10-01T10:06:00.374Z,83
2022-10-01T10:07:00.523Z,83.6
2022-10-01T10:08:00.675Z,83.4
2022-10-01T10:09:00.841Z,83.7
2022-10-01T10:10:00.964Z,83.7
2022-10-01T10:11:01.139Z,82.8
2022-10-01T10:12:00.268Z,83.4
2022-10-01T10:13:00.416Z,83.4
2022-10-01T10:14:00.574Z,83.1
2022-10-01T10:15:00.700Z,83.7
2022-10-01T10:16:00.940Z,83.2
2022-10-01T10:17:01.001Z,83.8
2022-10-01T10:18:01.149Z,83.7
2022-10-01T10:19:00.295Z,83.8
2022-10-01T10:20:00.453Z,83.6
2022-10-01T10:21:00.579Z,84
2022-10-01T10:22:00.731Z,83.8
2022-10-01T10:23:00.889Z,83.7
2022-10-01T10:24:01.052Z,84.3
2022-10-01T10:25:01.206Z,83.8
2022-10-01T10:26:00.320Z,84.4
2022-10-01T10:27:00.459Z,84.3
2022-10-01T10:28:00.671Z,84.2
2022-10-01T10:29:00.766Z,84.8
2022-10-01T10:30:00.915Z,84.3
2022-10-01T10:31:01.106Z,84.6
2022-10-01T10:32:01.193Z,83.8
2022-10-01T10:33:00.356Z,84
2022-10-01T10:34:00.477Z,85
2022-10-01T10:35:03.060Z,84.9
2022-10-01T10:36:00.780Z,85
2022-10-01T10:37:00.952Z,85.2
2022-10-01T10:38:01.092Z,85
2022-10-01T10:39:01.223Z,84.9
2022-10-01T10:40:00.351Z,85.1
2022-10-01T10:41:00.500Z,85.3
2022-10-01T10:42:00.650Z,84.9
2022-10-01T10:43:00.810Z,84.6
2022-10-01T10:44:00.956Z,85.1
2022-10-01T10:45:01.099Z,85.5
2022-10-01T10:46:01.271Z,85.7
2022-10-01T10:47:00.380Z,85.8
2022-10-01T10:48:00.541Z,86
2022-10-01T10:49:00.711Z,85.9
2022-10-01T10:50:00.826Z,85.9
2022-10-01T10:51:00.992Z,85.1
2022-10-01T10:52:01.139Z,85.4
2022-10-01T10:53:00.270Z,85.6
2022-10-01T10:54:00.461Z,85.9
2022-10-01T10:55:00.599Z,86.1
2022-10-01T10:56:00.734Z,86.3
2022-10-01T10:57:00.873Z,86.2
2022-10-01T10:58:04.524Z,86.5
2022-10-01T10:59:01.178Z,85.9
2022-10-01T11:00:00.308Z,86.3
2022-10-01T11:01:00.504Z,86.4
2022-10-01T11:02:00.722Z,86.2
2022-10-01T11:03:00.753Z,86.6
2022-10-01T11:04:00.942Z,87.1
2022-10-01T11:05:01.094Z,86.9
2022-10-01T11:06:01.225Z,86.7
2022-10-01T11:07:00.373Z,86.9
2022-10-01T11:08:00.519Z,86.7
2022-10-01T11:09:00.691Z,86.3
2022-10-01T11:10:00.815Z,86.8
2022-10-01T11:11:00.971Z,86.7
2022-10-01T11:12:01.116Z,85.8
2022-10-01T11:13:00.267Z,86
2022-10-01T11:14:00.423Z,86.4
2022-10-01T11:15:00.553Z,86.5
2022-10-01T11:16:00.757Z,86.2
2022-10-01T11:17:00.843Z,86
2022-10-01T11:18:00.999Z,86.2
2022-10-01T11:19:01.162Z,86.3
2022-10-01T11:20:00.284Z,86.6
2022-10-01T11:21:00.429Z,86.3
2022-10-01T11:22:00.578Z,86.3
2022-10-01T11:23:00.720Z,86.8
2022-10-01T11:24:00.885Z,86.9
2022-10-01T11:25:01.114Z,86.7
2022-10-01T11:26:01.178Z,86.5
2022-10-01T11:27:00.325Z,86.8
2022-10-01T11:28:00.522Z,87
2022-10-01T11:29:00.612Z,86.9
2022-10-01T11:30:00.811Z,86.8
2022-10-01T11:31:01.005Z,86.6
2022-10-01T11:32:01.053Z,86.7
2022-10-01T11:33:01.198Z,86.7
2022-10-01T11:34:00.351Z,86.6
2022-10-01T11:35:00.514Z,87.1
2022-10-01T11:36:00.669Z,86.9
2022-10-01T11:37:00.796Z,87
2022-10-01T11:38:00.954Z,87
2022-10-01T11:39:01.099Z,87
2022-10-01T11:40:01.249Z,87.2
2022-10-01T11:41:00.425Z,87.3
2022-10-01T11:42:00.532Z,87
2022-10-01T11:43:00.689Z,87
2022-10-01T11:44:00.837Z,86.9
2022-10-01T11:45:01.083Z,87.2
2022-10-01T11:46:01.223Z,87.2
2022-10-01T11:47:00.293Z,87.1
2022-10-01T11:48:00.437Z,87.3
2022-10-01T11:49:00.586Z,87.6
2022-10-01T11:50:00.736Z,87.7
2022-10-01T11:51:00.913Z,87.9
2022-10-01T11:52:01.053Z,88.1
2022-10-01T11:53:01.223Z,87.8
2022-10-01T11:54:00.361Z,87.8
2022-10-01T11:55:00.502Z,88.2
2022-10-01T11:56:00.689Z,88.4
2022-10-01T11:57:00.794Z,88.7
2022-10-01T11:58:00.937Z,88.9
2022-10-01T11:59:01.085Z,88.8
2022-10-01T12:00:01.256Z,88.8
2022-10-01T12:01:00.390Z,88.5
2022-10-01T12:02:00.587Z,88.4
2022-10-01T12:03:00.668Z,88.5
2022-10-01T12:04:00.812Z,88.5
2022-10-01T12:05:00.963Z,89
2022-10-01T12:06:01.113Z,89
2022-10-01T12:07:01.282Z,89
2022-10-01T12:08:00.408Z,89.1
2022-10-01T12:09:00.556Z,89.1
2022-10-01T12:10:00.717Z,89.1
2022-10-01T12:11:00.868Z,89
2022-10-01T12:12:01.039Z,89.3
2022-10-01T12:13:01.144Z,89.3
2022-10-01T12:14:00.291Z,89.3
2022-10-01T12:15:04.230Z,89.2
2022-10-01T12:16:00.629Z,89.3
2022-10-01T12:17:00.753Z,89.4
2022-10-01T12:18:00.883Z,89.4
2022-10-01T12:19:01.027Z,89.5
2022-10-01T12:20:01.187Z,89.3
2022-10-01T12:21:00.329Z,89
2022-10-01T12:22:00.495Z,89.1
2022-10-01T12:23:00.614Z,89
2022-10-01T12:24:00.766Z,89.1
2022-10-01T12:25:00.907Z,89.3
2022-10-01T12:26:01.064Z,89.5
2022-10-01T12:27:01.220Z,89.7
2022-10-01T12:28:00.396Z,89.8
2022-10-01T12:29:00.681Z,89.7
2022-10-01T12:30:00.646Z,89.6
2022-10-01T12:31:00.850Z,89.7
2022-10-01T12:32:00.976Z,89.5
2022-10-01T12:33:01.093Z,89.3
2022-10-01T12:34:01.244Z,89.1
2022-10-01T12:35:00.397Z,89.1
2022-10-01T12:36:00.539Z,89.3
2022-10-01T12:37:00.713Z,89.3
2022-10-01T12:38:00.842Z,89.3
2022-10-01T12:39:00.982Z,89.3
2022-10-01T12:40:01.138Z,89.3
2022-10-01T12:41:00.275Z,89.2
2022-10-01T12:42:00.441Z,89.1
2022-10-01T12:43:03.971Z,88.9
2022-10-01T12:44:00.736Z,88.5
2022-10-01T12:45:00.859Z,88.7
2022-10-01T12:46:01.073Z,88.6
2022-10-01T12:47:01.167Z,88.7
2022-10-01T12:48:00.280Z,88.6
2022-10-01T12:49:00.438Z,88.4
2022-10-01T12:50:00.589Z,88.4
2022-10-01T12:51:00.738Z,88.7
2022-10-01T12:52:00.900Z,88.9
2022-10-01T12:53:01.042Z,88.5
2022-10-01T12:54:01.188Z,88.4
2022-10-01T12:55:00.342Z,88.4
2022-10-01T12:56:00.481Z,88.4
2022-10-01T12:57:00.638Z,88.2
2022-10-01T12:58:00.780Z,88.2
2022-10-01T12:59:00.928Z,88.3
2022-10-01T13:00:01.071Z,88.3
2022-10-01T13:01:01.341Z,88.5
2022-10-01T13:02:00.463Z,88.7
2022-10-01T13:03:00.554Z,88.6
2022-10-01T13:04:03.303Z,88.1
2022-10-01T13:05:00.827Z,87.6
2022-10-01T13:06:00.966Z,86.9
2022-10-01T13:07:01.127Z,87.3
2022-10-01T13:09:00.385Z,87.3
2022-10-01T13:10:00.499Z,87.5
2022-10-01T13:11:00.662Z,87.1
2022-10-01T13:12:00.801Z,87
2022-10-01T13:13:00.968Z,87.5
2022-10-01T13:14:01.136Z,87.7
2022-10-01T13:16:00.409Z,87.4
2022-10-01T13:17:00.515Z,86.3
2022-10-01T13:18:00.653Z,87.1
2022-10-01T13:19:00.831Z,87.2
2022-10-01T13:20:00.958Z,87.1
2022-10-01T13:21:01.103Z,87.1
2022-10-01T13:22:01.246Z,87.1
2022-10-01T13:23:00.382Z,86.8
2022-10-01T13:24:00.566Z,86.9
2022-10-01T13:25:00.687Z,87.2